Terminal Aerodrome Forecast
Issued by NWS Shreveport, LA

Home | Current Version | Previous Version | Text Only | Print | Product List | Glossary On
Versions: 1 2 3 4 5 6 7 8 9 10 11 12 13 14 15 16 17 18 19
000
FTUS44 KSHV 010500
TAFSHV
TAF
KSHV 010540Z 0106/0206 06005KT P6SM SCT020 OVC040
      TEMPO 0109/0113 P6SM -RA OVC050
     FM011300 04006KT 4SM -RA BR OVC010
     FM012100 36004KT 1/2SM FG OVC004
      TEMPO 0121/0124 1/2SM -RA OVC004
     FM020000 36002KT 1 1/2SM BR OVC004
     FM020300 02005KT 4SM BR OVC004=

USA.gov is the U.S. government's official web portal to all federal, state and local government web resources and services.